Time;durP1;ratioP1;P1;durP2;ratioP2;P2;SDS_P1;SDS_P2;PMS_P1;PMS_P2;Temp;Humidity;BMP_temperature;BMP_pressure;BME280_temperature;BME280_humidity;BME280_pressure;Samples;Min_cycle;Max_cycle;Signal;HPM_P1;HPM_P2
2023/07/05 00:00:37;;;;;;;2.67;1.70;;;17.70;99.90;;;;;;5036527;28;20398;-78
2023/07/05 00:03:03;;;;;;;1.97;1.70;;;17.60;99.90;;;;;;5036797;28;20383;-79
2023/07/05 00:05:29;;;;;;;7.28;1.98;;;17.60;99.90;;;;;;5016392;28;20561;-80
2023/07/05 00:07:55;;;;;;;2.15;1.70;;;17.50;99.90;;;;;;5016669;28;20388;-79
2023/07/05 00:10:21;;;;;;;2.25;2.03;;;17.60;99.90;;;;;;5025074;28;20902;-80
2023/07/05 00:12:46;;;;;;;2.60;2.10;;;17.60;99.90;;;;;;5014814;28;20409;-79
2023/07/05 00:15:12;;;;;;;2.20;1.60;;;17.70;99.90;;;;;;5034002;28;20749;-80
2023/07/05 00:17:38;;;;;;;2.97;1.60;;;17.60;99.90;;;;;;5033336;28;20414;-79
2023/07/05 00:20:05;;;;;;;2.65;1.80;;;17.60;99.90;;;;;;5011535;28;21147;-80
2023/07/05 00:22:31;;;;;;;2.63;1.80;;;17.70;99.90;;;;;;5014387;28;20393;-79
2023/07/05 00:24:57;;;;;;;2.87;1.90;;;17.80;99.90;;;;;;5013879;28;20389;-79
2023/07/05 00:27:23;;;;;;;2.27;1.83;;;17.70;99.90;;;;;;5013813;28;20393;-79
2023/07/05 00:29:50;;;;;;;2.03;1.80;;;17.80;99.90;;;;;;5012561;28;20391;-79
2023/07/05 00:32:16;;;;;;;3.33;1.80;;;18.00;99.90;;;;;;5011582;28;20431;-79
2023/07/05 00:34:42;;;;;;;2.03;1.80;;;18.00;99.90;;;;;;5032486;28;20430;-79
2023/07/05 00:37:08;;;;;;;2.17;1.60;;;18.50;99.90;;;;;;5032888;28;20469;-79
2023/07/05 00:39:33;;;;;;;1.70;1.60;;;18.40;99.90;;;;;;5032970;28;20457;-79
2023/07/05 00:41:59;;;;;;;3.15;2.45;;;18.30;99.90;;;;;;5033451;28;20913;-79
2023/07/05 00:44:26;;;;;;;3.08;2.10;;;18.30;99.90;;;;;;5032681;28;20406;-79
2023/07/05 00:46:59;;;;;;;2.10;2.00;;;18.20;99.90;;;;;;5032511;28;20391;-79
2023/07/05 00:49:27;;;;;;;2.17;1.98;;;18.30;99.90;;;;;;5032927;28;20462;-80
2023/07/05 00:51:59;;;;;;;3.35;1.80;;;18.40;99.90;;;;;;5032014;28;20391;-79
2023/07/05 00:54:29;;;;;;;2.90;2.10;;;18.60;99.90;;;;;;5012353;28;20742;-79
2023/07/05 00:57:05;;;;;;;2.13;1.63;;;18.30;99.90;;;;;;5012063;28;20411;-79
2023/07/05 00:59:40;;;;;;;3.08;1.80;;;18.80;99.90;;;;;;5012947;28;20399;-79
2023/07/05 01:02:06;;;;;;;4.55;1.75;;;18.80;99.90;;;;;;5012414;28;20848;-78
2023/07/05 01:04:33;;;;;;;2.03;1.83;;;18.90;99.90;;;;;;5018794;28;20481;-79
2023/07/05 01:06:58;;;;;;;2.17;1.90;;;19.10;99.90;;;;;;5031492;28;20792;-79
2023/07/05 01:09:26;;;;;;;2.90;2.00;;;19.10;99.90;;;;;;5033190;28;20397;-79
2023/07/05 01:12:00;;;;;;;1.80;1.70;;;19.10;99.90;;;;;;5022359;28;20790;-80
2023/07/05 01:14:58;;;;;;;2.10;1.70;;;19.20;99.90;;;;;;5018278;28;20393;-81
2023/07/05 01:17:48;;;;;;;2.08;1.70;;;19.20;99.90;;;;;;5028499;28;20411;-79
2023/07/05 01:20:30;;;;;;;2.83;1.85;;;18.80;99.90;;;;;;5032617;28;20862;-79
2023/07/05 01:23:12;;;;;;;3.58;1.90;;;18.60;99.90;;;;;;5012474;28;20432;-78
2023/07/05 01:26:12;;;;;;;3.40;2.17;;;18.50;99.90;;;;;;5012257;28;20393;-79
2023/07/05 01:28:38;;;;;;;1.67;1.58;;;18.60;99.90;;;;;;4982463;28;20389;-79
2023/07/05 01:31:40;;;;;;;2.00;1.80;;;18.60;99.90;;;;;;5013936;28;20854;-78
2023/07/05 01:34:22;;;;;;;3.00;2.10;;;18.70;99.90;;;;;;5031538;28;20959;-79
2023/07/05 01:36:48;;;;;;;2.60;1.60;;;18.60;99.90;;;;;;5011373;28;20415;-78
2023/07/05 01:39:14;;;;;;;1.60;1.50;;;18.60;99.90;;;;;;5018726;28;20393;-79
2023/07/05 01:41:40;;;;;;;2.40;1.70;;;18.70;99.90;;;;;;4994034;28;20389;-79
2023/07/05 01:44:07;;;;;;;1.70;1.60;;;18.70;99.90;;;;;;5011810;28;20387;-79
2023/07/05 01:46:55;;;;;;;3.63;1.40;;;18.80;99.90;;;;;;5011004;28;20443;-79
2023/07/05 01:49:27;;;;;;;2.70;2.20;;;19.30;99.90;;;;;;5001204;28;20404;-79
2023/07/05 01:52:03;;;;;;;3.40;1.80;;;18.80;99.90;;;;;;4993884;28;20396;-79
2023/07/05 01:54:42;;;;;;;1.80;1.60;;;18.90;99.90;;;;;;5011933;28;20424;-79
2023/07/05 01:57:13;;;;;;;4.00;1.67;;;18.80;99.90;;;;;;4993087;28;20408;-79
2023/07/05 01:59:47;;;;;;;1.80;1.70;;;18.50;99.90;;;;;;4993963;28;20388;-79
2023/07/05 02:02:15;;;;;;;3.17;2.60;;;18.40;99.90;;;;;;5011393;28;20789;-79
2023/07/05 02:04:42;;;;;;;1.90;1.80;;;18.20;99.90;;;;;;5003954;28;20461;-79
2023/07/05 02:07:07;;;;;;;2.42;2.10;;;18.20;99.90;;;;;;5024444;28;20894;-79
2023/07/05 02:09:37;;;;;;;3.50;1.70;;;18.30;99.90;;;;;;5011318;28;20408;-79
2023/07/05 02:12:04;;;;;;;4.30;1.85;;;18.30;99.90;;;;;;5005927;28;20795;-78
2023/07/05 02:14:30;;;;;;;2.20;2.00;;;18.30;99.90;;;;;;5031266;28;20402;-79
2023/07/05 02:16:55;;;;;;;2.10;1.90;;;18.20;99.90;;;;;;5018676;28;20413;-79
2023/07/05 02:19:21;;;;;;;3.58;1.92;;;18.20;99.90;;;;;;5020387;28;20395;-78
2023/07/05 02:21:46;;;;;;;3.20;2.00;;;18.20;99.90;;;;;;5012805;28;20391;-78
2023/07/05 02:24:12;;;;;;;2.67;1.73;;;18.30;99.90;;;;;;5086818;22;20427;-83
2023/07/05 02:26:37;;;;;;;2.10;1.90;;;18.50;99.90;;;;;;5076639;28;20379;-83
2023/07/05 02:29:03;;;;;;;2.13;1.87;;;18.50;99.90;;;;;;5079486;28;20405;-83
2023/07/05 02:31:29;;;;;;;2.67;1.80;;;18.80;99.90;;;;;;5077970;28;20403;-83
2023/07/05 02:33:54;;;;;;;1.83;1.60;;;18.70;99.90;;;;;;5080173;28;20376;-83
2023/07/05 02:36:20;;;;;;;1.90;1.60;;;18.70;99.90;;;;;;5076349;28;20505;-82
2023/07/05 02:38:46;;;;;;;1.70;1.60;;;18.60;99.90;;;;;;5079346;28;20399;-83
2023/07/05 02:41:11;;;;;;;2.10;1.80;;;18.70;99.90;;;;;;5079309;28;20443;-83
2023/07/05 02:43:37;;;;;;;1.93;1.80;;;18.70;99.90;;;;;;5077874;28;20391;-83
2023/07/05 02:46:05;;;;;;;2.53;1.75;;;18.60;99.90;;;;;;5078614;28;20395;-83
2023/07/05 02:48:31;;;;;;;2.65;2.10;;;18.40;99.90;;;;;;5089962;28;20380;-83
2023/07/05 02:50:56;;;;;;;1.65;1.52;;;18.40;99.90;;;;;;5094380;28;20398;-83
2023/07/05 02:53:22;;;;;;;2.30;1.90;;;18.30;99.90;;;;;;5084472;28;20388;-83
2023/07/05 02:55:47;;;;;;;2.60;1.98;;;18.30;99.90;;;;;;5078785;28;20435;-83
2023/07/05 02:58:13;;;;;;;3.27;1.90;;;18.20;99.90;;;;;;5080585;28;20391;-83
2023/07/05 03:00:38;;;;;;;1.70;1.60;;;18.50;99.90;;;;;;5080463;28;20394;-83
2023/07/05 03:03:04;;;;;;;1.95;1.60;;;18.60;99.90;;;;;;5078076;28;20456;-84
2023/07/05 03:05:29;;;;;;;1.90;1.70;;;18.50;99.90;;;;;;5078798;28;20402;-83
2023/07/05 03:07:55;;;;;;;1.42;1.33;;;18.90;99.90;;;;;;5079935;28;20758;-83
2023/07/05 03:10:20;;;;;;;4.00;2.00;;;18.50;99.90;;;;;;5080035;28;20869;-83
2023/07/05 03:12:46;;;;;;;2.28;1.80;;;18.50;99.90;;;;;;5101616;28;20378;-82
2023/07/05 03:15:11;;;;;;;1.90;1.63;;;18.60;99.90;;;;;;5090644;28;20440;-82
2023/07/05 03:17:38;;;;;;;2.88;1.60;;;18.80;99.90;;;;;;5081166;28;20399;-83
2023/07/05 03:20:03;;;;;;;2.25;1.65;;;19.00;99.90;;;;;;5087588;28;20407;-81
2023/07/05 03:22:29;;;;;;;1.65;1.30;;;19.00;99.90;;;;;;5092363;28;20417;-83
2023/07/05 03:24:55;;;;;;;2.30;2.00;;;18.40;99.90;;;;;;5082853;28;20392;-82
2023/07/05 03:27:20;;;;;;;1.73;1.53;;;18.70;99.90;;;;;;5090975;28;20388;-83
2023/07/05 03:29:47;;;;;;;1.80;1.60;;;19.20;99.90;;;;;;5083673;28;20394;-82
2023/07/05 03:32:13;;;;;;;2.60;1.90;;;19.20;99.90;;;;;;5083287;28;20908;-82
2023/07/05 03:34:39;;;;;;;2.03;1.67;;;19.20;99.90;;;;;;5082213;28;20399;-83
2023/07/05 03:37:04;;;;;;;4.10;1.70;;;19.20;99.90;;;;;;5082250;28;20411;-82
2023/07/05 03:39:30;;;;;;;2.10;1.90;;;19.20;99.90;;;;;;5083125;28;20392;-83
2023/07/05 03:41:55;;;;;;;2.10;1.90;;;19.30;99.90;;;;;;5082367;28;20375;-82
2023/07/05 03:44:22;;;;;;;3.07;2.00;;;19.90;99.90;;;;;;5081698;28;20399;-82
2023/07/05 03:46:49;;;;;;;2.15;1.95;;;19.30;99.90;;;;;;5080904;28;20399;-82
2023/07/05 03:49:15;;;;;;;2.40;2.20;;;18.80;99.90;;;;;;5083898;28;20455;-82
2023/07/05 03:51:40;;;;;;;2.60;2.03;;;19.30;99.90;;;;;;5081656;28;20411;-82
2023/07/05 03:54:06;;;;;;;2.53;1.87;;;19.30;99.90;;;;;;5080137;28;20822;-82
2023/07/05 03:56:33;;;;;;;2.60;1.80;;;19.30;99.90;;;;;;5076757;28;20510;-82
2023/07/05 03:58:59;;;;;;;3.58;2.00;;;19.30;99.90;;;;;;5079473;28;20427;-82
2023/07/05 04:01:26;;;;;;;2.83;1.70;;;19.30;99.90;;;;;;5078585;28;20842;-83
2023/07/05 04:03:56;;;;;;;2.88;1.67;;;19.30;99.90;;;;;;5079636;28;20552;-82
2023/07/05 04:06:23;;;;;;;3.13;1.92;;;19.30;99.90;;;;;;5078963;28;20399;-82
2023/07/05 04:08:49;;;;;;;2.03;1.83;;;20.00;99.90;;;;;;5081194;28;20407;-82
2023/07/05 04:11:15;;;;;;;2.42;2.20;;;19.50;99.90;;;;;;5087085;28;20826;-82
2023/07/05 04:13:41;;;;;;;5.10;2.20;;;19.40;99.90;;;;;;5100726;28;20752;-81
2023/07/05 04:16:20;;;;;;;2.20;1.80;;;19.50;99.90;;;;;;5090409;28;20404;-81
2023/07/05 04:18:49;;;;;;;2.70;2.10;;;19.60;99.90;;;;;;5083243;28;20399;-82
2023/07/05 04:21:15;;;;;;;3.30;2.10;;;19.60;99.90;;;;;;5094909;28;20446;-81
2023/07/05 04:23:41;;;;;;;2.13;1.93;;;19.60;99.90;;;;;;5089520;28;20897;-82
2023/07/05 04:26:09;;;;;;;3.00;2.10;;;19.70;99.90;;;;;;5085404;28;20912;-83
2023/07/05 04:28:36;;;;;;;2.40;2.20;;;19.70;99.90;;;;;;5081367;28;20877;-82
2023/07/05 04:31:02;;;;;;;2.53;1.88;;;19.10;99.90;;;;;;5081487;28;20461;-83
2023/07/05 04:33:28;;;;;;;2.53;2.33;;;19.60;99.90;;;;;;5081827;28;20459;-82
2023/07/05 04:35:58;;;;;;;2.13;1.92;;;19.80;99.90;;;;;;5080860;28;20422;-82
2023/07/05 04:38:25;;;;;;;2.63;2.22;;;19.80;99.90;;;;;;5080941;28;20388;-82
2023/07/05 04:40:51;;;;;;;3.80;2.40;;;19.80;99.90;;;;;;5080938;28;20387;-83
2023/07/05 04:43:17;;;;;;;3.33;2.10;;;19.80;99.90;;;;;;5079362;28;20418;-83
2023/07/05 04:45:49;;;;;;;2.30;2.10;;;19.80;99.90;;;;;;5078399;28;20399;-83
2023/07/05 04:48:14;;;;;;;2.90;2.70;;;19.70;99.90;;;;;;5079510;28;20749;-82
2023/07/05 04:50:40;;;;;;;2.08;1.88;;;20.70;99.90;;;;;;5077669;28;20368;-82
2023/07/05 04:53:05;;;;;;;2.40;2.20;;;20.60;99.90;;;;;;5081052;28;20731;-82
2023/07/05 04:55:31;;;;;;;2.70;2.00;;;19.70;99.90;;;;;;5082269;28;20380;-82
2023/07/05 04:57:56;;;;;;;2.20;2.00;;;19.80;99.90;;;;;;5082098;28;20375;-81
2023/07/05 05:00:24;;;;;;;2.90;1.90;;;19.80;99.90;;;;;;5079038;28;20482;-82
2023/07/05 05:02:49;;;;;;;2.00;1.67;;;19.80;99.90;;;;;;5081406;28;20376;-82
2023/07/05 05:05:15;;;;;;;3.00;1.70;;;19.90;99.90;;;;;;5082148;28;20417;-81
2023/07/05 05:07:41;;;;;;;2.83;2.08;;;19.80;99.90;;;;;;5081531;28;20375;-82
2023/07/05 05:10:07;;;;;;;2.50;1.70;;;19.70;99.90;;;;;;5084101;28;20398;-83
2023/07/05 05:12:32;;;;;;;2.03;1.73;;;19.80;99.90;;;;;;5089371;28;20400;-81
2023/07/05 05:14:58;;;;;;;2.27;1.90;;;19.70;99.90;;;;;;5079289;28;20384;-82
2023/07/05 05:17:24;;;;;;;1.80;1.50;;;19.70;99.90;;;;;;5086411;28;20407;-82
2023/07/05 05:19:49;;;;;;;2.10;1.70;;;19.10;99.90;;;;;;5092395;28;20395;-82
2023/07/05 05:22:15;;;;;;;3.10;1.80;;;19.60;99.90;;;;;;5080639;28;20431;-83
2023/07/05 05:24:40;;;;;;;3.90;2.00;;;19.50;99.90;;;;;;5085463;28;20406;-81
2023/07/05 05:27:06;;;;;;;1.90;1.70;;;19.40;99.90;;;;;;5088235;28;20438;-82
2023/07/05 05:29:32;;;;;;;2.50;1.60;;;19.40;99.90;;;;;;5080869;28;20466;-81
2023/07/05 05:31:57;;;;;;;2.63;1.75;;;19.40;99.90;;;;;;5079446;28;20500;-81
2023/07/05 05:34:25;;;;;;;2.40;2.05;;;19.30;99.90;;;;;;5080209;28;20441;-82
2023/07/05 05:36:52;;;;;;;1.98;1.88;;;19.20;99.90;;;;;;5078011;28;20403;-82
2023/07/05 05:39:18;;;;;;;2.50;2.00;;;19.10;99.90;;;;;;5081596;28;20380;-82
2023/07/05 05:41:43;;;;;;;1.97;1.70;;;19.10;99.90;;;;;;5077928;28;20392;-81
2023/07/05 05:44:09;;;;;;;2.30;2.10;;;19.00;99.90;;;;;;5076893;28;20449;-81
2023/07/05 05:46:34;;;;;;;2.60;1.70;;;19.20;99.90;;;;;;5066961;28;20491;-81
2023/07/05 05:49:00;;;;;;;2.43;1.53;;;19.00;99.90;;;;;;5073568;28;20455;-81
2023/07/05 05:51:26;;;;;;;1.60;1.50;;;19.20;99.90;;;;;;5071435;28;20398;-81
2023/07/05 05:53:51;;;;;;;2.20;1.60;;;20.70;99.90;;;;;;5072830;28;20402;-80
2023/07/05 05:56:18;;;;;;;2.17;1.60;;;19.20;99.90;;;;;;5073538;28;20396;-82
2023/07/05 05:58:43;;;;;;;1.80;1.42;;;19.30;99.90;;;;;;5079260;28;20462;-81
2023/07/05 06:01:12;;;;;;;3.23;1.70;;;19.20;99.90;;;;;;5073264;28;20901;-82
2023/07/05 06:03:37;;;;;;;1.80;1.52;;;19.70;99.90;;;;;;5068517;28;20396;-81
2023/07/05 06:06:03;;;;;;;1.52;1.42;;;19.20;99.90;;;;;;5070114;28;20391;-83
2023/07/05 06:08:29;;;;;;;1.50;1.40;;;19.30;99.90;;;;;;5074344;28;20418;-82
2023/07/05 06:10:59;;;;;;;2.15;1.42;;;19.20;99.90;;;;;;5070061;28;21197;-81
2023/07/05 06:13:27;;;;;;;3.03;1.90;;;19.40;99.90;;;;;;5087123;28;20386;-81
2023/07/05 06:15:57;;;;;;;2.92;1.50;;;19.40;99.90;;;;;;5077278;28;20387;-82
2023/07/05 06:18:23;;;;;;;1.70;1.50;;;19.30;99.90;;;;;;5077993;28;20388;-81
2023/07/05 06:20:49;;;;;;;4.25;2.10;;;19.20;99.90;;;;;;5079607;28;20383;-82
2023/07/05 06:23:15;;;;;;;1.80;1.70;;;18.30;99.90;;;;;;5078476;28;20487;-82
2023/07/05 06:25:40;;;;;;;2.03;1.70;;;18.20;99.90;;;;;;5073520;28;20898;-86
2023/07/05 06:28:06;;;;;;;3.53;2.00;;;17.60;99.90;;;;;;5072875;28;20493;-84
2023/07/05 06:30:31;;;;;;;3.13;2.07;;;17.50;99.90;;;;;;5066583;28;20407;-86
2023/07/05 06:32:57;;;;;;;2.20;2.00;;;17.10;99.90;;;;;;5071448;28;20421;-79
2023/07/05 06:35:22;;;;;;;2.40;1.88;;;16.80;99.90;;;;;;5084465;28;20477;-80
2023/07/05 06:37:48;;;;;;;4.13;2.20;;;16.60;99.90;;;;;;5093989;28;20496;-81
2023/07/05 06:40:14;;;;;;;3.30;1.90;;;16.50;99.90;;;;;;5085570;28;20445;-79
2023/07/05 06:42:39;;;;;;;2.10;1.90;;;16.40;99.90;;;;;;5075073;28;21017;-83
2023/07/05 06:45:06;;;;;;;2.60;2.28;;;16.40;99.90;;;;;;5076529;28;20397;-84
2023/07/05 06:47:31;;;;;;;3.08;2.10;;;16.40;99.90;;;;;;5073096;28;20387;-82
2023/07/05 06:49:57;;;;;;;3.50;2.40;;;16.50;99.90;;;;;;5076345;28;20383;-83
2023/07/05 06:52:23;;;;;;;2.97;2.10;;;16.40;99.90;;;;;;5076472;28;20387;-82
2023/07/05 06:54:49;;;;;;;2.70;1.83;;;16.40;99.90;;;;;;5078787;28;20392;-81
2023/07/05 06:57:15;;;;;;;2.85;1.90;;;16.30;99.90;;;;;;5077804;28;20936;-81
2023/07/05 06:59:43;;;;;;;2.80;1.70;;;16.30;99.90;;;;;;5081006;28;20387;-82
2023/07/05 07:02:09;;;;;;;1.70;1.60;;;16.30;99.90;;;;;;5081791;28;20386;-82
2023/07/05 07:04:35;;;;;;;1.60;1.50;;;16.40;99.90;;;;;;5078755;28;20372;-81
2023/07/05 07:07:00;;;;;;;2.80;1.50;;;16.40;99.90;;;;;;5076835;28;20437;-85
2023/07/05 07:09:26;;;;;;;2.00;1.37;;;16.30;99.90;;;;;;5075595;28;20430;-85
2023/07/05 07:11:52;;;;;;;2.05;1.60;;;16.30;99.90;;;;;;5084764;28;20499;-86
2023/07/05 07:14:17;;;;;;;1.93;1.73;;;16.40;99.90;;;;;;5102103;28;20394;-84
2023/07/05 07:16:43;;;;;;;1.70;1.60;;;16.50;99.90;;;;;;5098285;28;20405;-84
2023/07/05 07:19:08;;;;;;;1.83;1.70;;;16.40;99.90;;;;;;5080741;28;20404;-84
2023/07/05 07:21:34;;;;;;;2.38;1.40;;;17.00;99.90;;;;;;5079053;28;20379;-83
2023/07/05 07:23:59;;;;;;;1.43;1.33;;;16.70;99.90;;;;;;5080009;28;20884;-83
2023/07/05 07:26:25;;;;;;;1.40;1.20;;;16.70;99.90;;;;;;5079025;28;20415;-82
2023/07/05 07:28:53;;;;;;;1.88;1.23;;;16.70;99.90;;;;;;5078023;28;20955;-81
2023/07/05 07:31:25;;;;;;;1.50;1.40;;;16.60;99.90;;;;;;5079707;28;20396;-83
2023/07/05 07:33:51;;;;;;;1.87;1.30;;;16.70;99.90;;;;;;5079790;28;20379;-83
2023/07/05 07:36:20;;;;;;;1.70;1.30;;;15.90;99.90;;;;;;5072713;28;20872;-80
2023/07/05 07:38:46;;;;;;;1.70;1.30;;;16.80;99.90;;;;;;5068086;28;20476;-81
2023/07/05 07:41:13;;;;;;;1.30;1.10;;;16.80;99.90;;;;;;5069456;28;20451;-80
2023/07/05 07:43:38;;;;;;;1.90;1.10;;;16.90;99.90;;;;;;5067773;28;20875;-80
2023/07/05 07:46:09;;;;;;;1.30;1.20;;;16.90;99.90;;;;;;5071044;28;20425;-81
2023/07/05 07:48:35;;;;;;;1.25;1.15;;;16.90;99.90;;;;;;5082955;28;20390;-80
2023/07/05 07:51:00;;;;;;;2.33;1.30;;;16.90;99.90;;;;;;5094930;28;20404;-80
2023/07/05 07:53:26;;;;;;;1.00;1.00;;;17.00;99.90;;;;;;5092865;28;20407;-79
2023/07/05 07:55:51;;;;;;;1.20;1.10;;;17.10;99.90;;;;;;5087482;28;20472;-80
2023/07/05 07:58:17;;;;;;;1.27;1.17;;;17.10;99.90;;;;;;5113800;28;20810;-80
2023/07/05 08:00:42;;;;;;;1.60;1.10;;;17.20;99.90;;;;;;5086978;28;20410;-79
2023/07/05 08:03:08;;;;;;;1.20;1.10;;;17.30;99.90;;;;;;5080033;28;20397;-81
2023/07/05 08:05:33;;;;;;;1.33;1.13;;;17.30;99.90;;;;;;5076881;28;20395;-82
2023/07/05 08:07:59;;;;;;;2.17;1.17;;;17.30;99.90;;;;;;5079376;28;20376;-82
2023/07/05 08:10:27;;;;;;;1.30;1.10;;;17.10;99.90;;;;;;5080728;28;20380;-83
2023/07/05 08:12:53;;;;;;;1.50;1.30;;;17.50;99.90;;;;;;5101422;28;20381;-81
2023/07/05 08:15:18;;;;;;;1.70;1.20;;;17.60;99.90;;;;;;5079008;28;20427;-82
2023/07/05 08:17:44;;;;;;;1.90;1.07;;;17.70;99.90;;;;;;5079005;28;20913;-81
2023/07/05 08:20:10;;;;;;;1.23;1.00;;;17.80;99.90;;;;;;5078281;28;20403;-82
2023/07/05 08:22:36;;;;;;;1.20;1.10;;;17.80;99.90;;;;;;5077694;28;20384;-83
2023/07/05 08:25:01;;;;;;;2.30;1.40;;;17.90;99.90;;;;;;5078800;28;20400;-81
2023/07/05 08:27:27;;;;;;;2.00;1.25;;;18.10;99.90;;;;;;5077285;28;20390;-82
2023/07/05 08:29:52;;;;;;;3.20;1.30;;;18.30;99.90;;;;;;5078140;28;20427;-84
2023/07/05 08:32:19;;;;;;;1.50;1.40;;;18.20;99.90;;;;;;5078013;28;20403;-82
2023/07/05 08:34:45;;;;;;;2.20;1.10;;;18.30;99.90;;;;;;5079931;28;20423;-82
2023/07/05 08:37:10;;;;;;;1.33;1.20;;;18.40;99.90;;;;;;5079271;28;20442;-82
2023/07/05 08:39:36;;;;;;;1.05;0.95;;;18.50;99.90;;;;;;5082461;28;20444;-81
2023/07/05 08:42:04;;;;;;;1.10;1.00;;;18.60;99.90;;;;;;5081179;28;20453;-81
2023/07/05 08:44:44;;;;;;;1.60;1.30;;;18.80;99.90;;;;;;5081350;28;20451;-80
2023/07/05 08:47:12;;;;;;;1.70;1.00;;;18.80;99.90;;;;;;5080979;28;20438;-80
2023/07/05 08:49:48;;;;;;;1.20;1.00;;;18.60;99.90;;;;;;5076846;28;20462;-79
2023/07/05 08:52:28;;;;;;;1.20;1.10;;;18.90;99.90;;;;;;5077942;28;20423;-80
2023/07/05 08:54:57;;;;;;;1.50;0.90;;;19.10;99.90;;;;;;5083726;28;20388;-79
2023/07/05 08:57:34;;;;;;;1.00;0.90;;;19.40;99.90;;;;;;5088068;28;20402;-79
2023/07/05 09:00:11;;;;;;;2.72;1.05;;;19.10;99.90;;;;;;5083941;28;20419;-79
2023/07/05 09:02:37;;;;;;;2.55;0.90;;;19.10;99.90;;;;;;5083586;28;20397;-79
2023/07/05 09:05:04;;;;;;;1.63;1.40;;;19.00;99.90;;;;;;5086172;28;20410;-79
2023/07/05 09:07:53;;;;;;;1.40;1.30;;;19.40;99.90;;;;;;5084378;28;20453;-80
2023/07/05 09:10:25;;;;;;;1.80;1.30;;;19.50;99.90;;;;;;5080049;28;20384;-80
2023/07/05 09:13:03;;;;;;;2.00;1.40;;;19.60;99.90;;;;;;5086333;28;20479;-79
2023/07/05 09:15:37;;;;;;;2.03;1.80;;;19.60;99.90;;;;;;5079951;28;20486;-80
2023/07/05 09:18:29;;;;;;;2.50;1.60;;;19.40;99.90;;;;;;5079647;28;20399;-80
2023/07/05 09:21:03;;;;;;;2.70;1.90;;;19.30;99.90;;;;;;5053316;28;20399;-81
2023/07/05 09:23:40;;;;;;;2.25;1.90;;;19.40;99.90;;;;;;5080862;28;20384;-79
2023/07/05 09:26:30;;;;;;;2.67;2.20;;;19.40;99.90;;;;;;5078676;28;20387;-81
2023/07/05 09:29:07;;;;;;;2.60;2.00;;;19.30;99.90;;;;;;5077493;28;20439;-80
2023/07/05 09:31:34;;;;;;;2.70;2.03;;;19.50;99.90;;;;;;5076519;28;20441;-79
2023/07/05 09:34:18;;;;;;;2.80;2.30;;;19.40;99.90;;;;;;5077070;28;20455;-80
2023/07/05 09:36:46;;;;;;;4.07;2.50;;;19.40;99.90;;;;;;5075907;28;20399;-80
2023/07/05 09:39:35;;;;;;;2.90;2.53;;;19.20;99.90;;;;;;5077783;28;20384;-79
2023/07/05 09:42:04;;;;;;;3.00;2.70;;;19.20;99.90;;;;;;5076535;28;20804;-79
2023/07/05 09:44:31;;;;;;;4.47;2.92;;;19.30;99.90;;;;;;5076958;28;20421;-80
2023/07/05 09:46:57;;;;;;;2.65;2.33;;;19.50;99.90;;;;;;5076007;28;20426;-79
2023/07/05 09:49:23;;;;;;;2.97;2.67;;;19.50;99.90;;;;;;5077897;28;20410;-80
2023/07/05 09:51:49;;;;;;;4.05;3.42;;;19.50;99.90;;;;;;5077020;28;20380;-79
2023/07/05 09:54:29;;;;;;;4.15;2.70;;;19.50;99.90;;;;;;5080433;28;20463;-79
2023/07/05 09:57:06;;;;;;;3.90;2.70;;;19.40;99.90;;;;;;5084508;28;20470;-80
2023/07/05 09:59:33;;;;;;;3.03;2.70;;;19.40;99.90;;;;;;5077880;28;20388;-80
2023/07/05 10:02:12;;;;;;;3.60;2.80;;;19.30;99.90;;;;;;5076689;28;20383;-81
2023/07/05 10:04:49;;;;;;;3.10;2.80;;;19.50;99.90;;;;;;5076925;28;20398;-81
2023/07/05 10:07:19;;;;;;;4.80;3.10;;;19.60;99.90;;;;;;5075933;28;20387;-81
2023/07/05 10:10:01;;;;;;;4.35;3.10;;;19.50;99.90;;;;;;5074927;28;20392;-80
2023/07/05 10:12:33;;;;;;;3.60;3.13;;;19.90;99.90;;;;;;5096324;28;20826;-81
2023/07/05 10:14:58;;;;;;;4.40;2.83;;;19.80;99.90;;;;;;5084812;28;20403;-80
2023/07/05 10:17:38;;;;;;;4.07;3.53;;;18.80;99.90;;;;;;5076694;28;20399;-82
2023/07/05 10:20:06;;;;;;;4.28;3.60;;;19.80;99.90;;;;;;5075039;28;20420;-81
2023/07/05 10:22:34;;;;;;;4.28;3.20;;;19.80;99.90;;;;;;5076971;28;20479;-80
2023/07/05 10:25:13;;;;;;;3.50;3.20;;;19.70;99.90;;;;;;5083604;28;20388;-78
2023/07/05 10:27:43;;;;;;;5.63;3.70;;;19.90;99.90;;;;;;5085198;28;20402;-80
2023/07/05 10:30:13;;;;;;;4.63;3.78;;;19.80;99.90;;;;;;5077199;28;20415;-80
2023/07/05 10:32:43;;;;;;;5.95;4.10;;;19.90;99.90;;;;;;5075665;28;20878;-81
2023/07/05 10:35:31;;;;;;;4.10;3.70;;;20.10;99.90;;;;;;5074505;28;20423;-80
2023/07/05 10:37:57;;;;;;;3.63;3.30;;;20.30;99.90;;;;;;5076925;28;20391;-81
2023/07/05 10:40:23;;;;;;;4.67;3.50;;;20.40;99.90;;;;;;5076314;28;20418;-80
2023/07/05 10:42:52;;;;;;;4.93;3.90;;;20.30;99.90;;;;;;5077493;28;20395;-80
2023/07/05 10:45:19;;;;;;;4.32;3.85;;;20.30;99.90;;;;;;5077062;28;20391;-80
2023/07/05 10:47:47;;;;;;;4.13;3.70;;;20.50;99.90;;;;;;5076386;28;20391;-80
2023/07/05 10:50:15;;;;;;;3.75;3.10;;;20.40;99.90;;;;;;5079150;28;20418;-81
2023/07/05 10:52:50;;;;;;;6.35;3.47;;;20.50;99.90;;;;;;5083425;28;20457;-79
2023/07/05 10:55:21;;;;;;;5.53;3.80;;;20.40;99.90;;;;;;5083190;28;20391;-78
2023/07/05 10:57:53;;;;;;;4.32;3.53;;;20.30;99.90;;;;;;5086779;28;20399;-80
2023/07/05 11:00:39;;;;;;;5.03;4.00;;;20.60;99.90;;;;;;5081240;28;20387;-79
2023/07/05 11:03:26;;;;;;;4.60;4.10;;;20.70;99.90;;;;;;5080211;28;20473;-81
2023/07/05 11:05:55;;;;;;;3.95;3.55;;;20.70;99.90;;;;;;5077981;28;20384;-81
2023/07/05 11:08:30;;;;;;;4.70;4.20;;;20.90;99.90;;;;;;5079058;28;20376;-81
2023/07/05 11:10:59;;;;;;;3.65;3.25;;;21.20;99.90;;;;;;5081755;28;20385;-81
2023/07/05 11:13:28;;;;;;;6.30;3.50;;;21.10;99.90;;;;;;5086828;28;20412;-82
2023/07/05 11:15:54;;;;;;;4.20;3.60;;;21.10;99.90;;;;;;5078198;28;20391;-80
2023/07/05 11:18:22;;;;;;;3.50;3.20;;;20.30;99.90;;;;;;5079216;28;20445;-80
2023/07/05 11:20:54;;;;;;;3.60;3.30;;;21.10;99.90;;;;;;5079019;28;20443;-81
2023/07/05 11:23:42;;;;;;;3.50;2.80;;;21.20;99.90;;;;;;5076184;28;20479;-81
2023/07/05 11:26:08;;;;;;;3.80;2.80;;;21.30;99.90;;;;;;5078322;28;20384;-80
2023/07/05 11:28:37;;;;;;;2.40;2.20;;;21.60;99.90;;;;;;5076094;28;20962;-81
2023/07/05 11:31:07;;;;;;;3.47;2.53;;;21.70;99.90;;;;;;5075118;28;20823;-81
2023/07/05 11:33:33;;;;;;;3.38;2.30;;;21.60;99.90;;;;;;5075777;28;20388;-80
2023/07/05 11:36:05;;;;;;;2.50;2.30;;;21.80;99.90;;;;;;5077687;28;20380;-80
2023/07/05 11:38:40;;;;;;;3.08;2.00;;;22.00;99.90;;;;;;5079323;28;20407;-81
2023/07/05 11:41:30;;;;;;;3.03;2.27;;;22.10;99.90;;;;;;5082774;28;20487;-81
2023/07/05 11:44:23;;;;;;;2.83;2.08;;;22.40;99.90;;;;;;5074358;28;20829;-80
2023/07/05 11:46:48;;;;;;;4.43;2.47;;;22.70;99.90;;;;;;5083018;28;20388;-81
2023/07/05 11:49:21;;;;;;;3.63;2.38;;;23.50;99.90;;;;;;5082856;28;20474;-81
2023/07/05 11:52:01;;;;;;;3.30;2.20;;;23.90;99.90;;;;;;5082813;28;20387;-81
2023/07/05 11:54:37;;;;;;;2.67;2.00;;;23.90;99.90;;;;;;5081252;28;20387;-80
2023/07/05 11:57:07;;;;;;;2.53;2.00;;;23.20;99.90;;;;;;5079870;28;20934;-81
2023/07/05 11:59:36;;;;;;;2.20;2.00;;;24.80;99.90;;;;;;5081597;28;20414;-82
2023/07/05 12:02:15;;;;;;;3.25;2.50;;;23.40;99.90;;;;;;5080559;28;20376;-81
2023/07/05 12:04:42;;;;;;;2.58;2.30;;;24.70;99.90;;;;;;5080526;28;20380;-81
2023/07/05 12:07:10;;;;;;;2.90;2.00;;;24.80;99.90;;;;;;5085358;28;20392;-81
2023/07/05 12:09:37;;;;;;;3.10;2.30;;;24.50;99.90;;;;;;5079517;28;20643;-81
2023/07/05 12:12:03;;;;;;;3.40;2.10;;;23.90;99.90;;;;;;5091894;28;20772;-81
2023/07/05 12:14:29;;;;;;;2.35;2.15;;;25.30;99.90;;;;;;5101472;28;20805;-81
2023/07/05 12:16:55;;;;;;;2.30;2.10;;;25.40;99.90;;;;;;5087846;28;20428;-80
2023/07/05 12:19:30;;;;;;;2.10;1.90;;;25.00;99.90;;;;;;5077533;28;20395;-81
2023/07/05 12:22:02;;;;;;;2.35;2.00;;;25.50;99.90;;;;;;5080278;28;20485;-81
2023/07/05 12:24:40;;;;;;;2.65;2.00;;;24.60;99.90;;;;;;5077980;28;20398;-81
2023/07/05 12:27:15;;;;;;;2.20;1.90;;;24.30;99.90;;;;;;5079795;28;20483;-81
2023/07/05 12:29:41;;;;;;;3.20;2.42;;;24.00;99.90;;;;;;5080637;28;20419;-80
2023/07/05 12:32:16;;;;;;;3.33;2.30;;;23.90;99.90;;;;;;5079294;28;20399;-80
2023/07/05 12:34:43;;;;;;;2.92;2.03;;;24.50;99.90;;;;;;5079378;28;20893;-82
2023/07/05 12:37:08;;;;;;;2.60;1.90;;;24.90;99.90;;;;;;5076959;28;20408;-81
2023/07/05 12:39:35;;;;;;;3.00;2.03;;;24.80;99.90;;;;;;5095281;28;20416;-82
2023/07/05 12:42:08;;;;;;;2.15;1.95;;;24.80;99.90;;;;;;5081764;28;20882;-82
2023/07/05 12:44:35;;;;;;;4.20;2.30;;;24.70;99.90;;;;;;5079080;28;20417;-81
2023/07/05 12:47:17;;;;;;;2.50;2.30;;;25.40;99.90;;;;;;5080903;28;20855;-82
2023/07/05 12:49:43;;;;;;;2.50;2.30;;;25.20;99.90;;;;;;5079970;28;20870;-81
2023/07/05 12:52:35;;;;;;;2.50;2.30;;;24.70;99.90;;;;;;5075223;28;20431;-81
2023/07/05 12:55:01;;;;;;;3.20;2.30;;;25.20;99.90;;;;;;5064922;28;20491;-81
2023/07/05 12:57:32;;;;;;;3.03;2.30;;;24.70;99.90;;;;;;5077489;28;20422;-80